createdAt,value
2023-01-21T00:01:28.083Z,48.90
2023-01-21T00:03:55.876Z,49.30
2023-01-21T00:06:23.314Z,50.30
2023-01-21T00:08:50.822Z,53.80
2023-01-21T00:11:18.892Z,55.40
2023-01-21T00:13:46.629Z,52.30
2023-01-21T00:16:15.388Z,53.70
2023-01-21T00:18:43.169Z,53.50
2023-01-21T00:21:10.780Z,51.00
2023-01-21T00:23:38.395Z,51.60
2023-01-21T00:26:07.223Z,52.10
2023-01-21T00:28:35.731Z,53.20
2023-01-21T00:31:05.092Z,52.70
2023-01-21T00:33:32.992Z,55.10
2023-01-21T00:36:30.028Z,54.40
2023-01-21T00:38:57.850Z,62.20
2023-01-21T00:41:25.714Z,61.30
2023-01-21T00:43:53.500Z,54.70
2023-01-21T00:46:21.147Z,55.10
2023-01-21T00:48:48.749Z,56.00
2023-01-21T00:51:16.388Z,54.70
2023-01-21T00:53:44.054Z,58.50
2023-01-21T00:56:12.755Z,62.20
2023-01-21T00:58:40.772Z,53.50
2023-01-21T01:01:10.375Z,51.00
2023-01-21T01:03:38.197Z,51.40
2023-01-21T01:06:10.686Z,51.10
2023-01-21T01:08:38.403Z,52.50
2023-01-21T01:11:06.332Z,49.80
2023-01-21T01:13:34.868Z,46.10
2023-01-21T01:16:03.130Z,51.30
2023-01-21T01:18:32.963Z,47.30
2023-01-21T01:21:00.510Z,47.80
2023-01-21T01:23:28.222Z,49.10
2023-01-21T01:26:06.814Z,51.20
2023-01-21T01:28:34.750Z,46.90
2023-01-21T01:31:04.950Z,47.50
2023-01-21T01:33:32.753Z,52.40
2023-01-21T01:36:08.693Z,50.70
2023-01-21T01:38:36.308Z,53.50
2023-01-21T01:41:03.902Z,53.60
2023-01-21T01:44:06.135Z,48.90
2023-01-21T01:46:36.587Z,47.50
2023-01-21T01:49:16.496Z,49.90
2023-01-21T01:51:47.277Z,44.00
2023-01-21T01:54:17.688Z,45.70
2023-01-21T01:56:46.611Z,49.10
2023-01-21T01:59:14.160Z,46.50
2023-01-21T02:01:41.882Z,47.40
2023-01-21T02:04:12.849Z,45.20
2023-01-21T02:06:40.428Z,48.20
2023-01-21T02:09:08.747Z,45.30
2023-01-21T02:11:36.882Z,45.00
2023-01-21T02:14:04.424Z,50.80
2023-01-21T02:16:35.300Z,54.40
2023-01-21T02:21:50.832Z,44.30
2023-01-21T02:24:36.832Z,46.20
2023-01-21T02:27:30.713Z,46.60
2023-01-21T02:30:20.357Z,47.00
2023-01-21T02:33:07.531Z,43.20
2023-01-21T02:35:57.634Z,40.70
2023-01-21T02:38:36.431Z,40.40
2023-01-21T02:41:12.431Z,41.70
2023-01-21T02:43:58.074Z,37.90
2023-01-21T02:46:40.910Z,37.60
2023-01-21T02:49:47.132Z,44.40
2023-01-21T02:52:19.172Z,42.90
2023-01-21T02:55:00.927Z,40.50
2023-01-21T02:57:36.910Z,39.40
2023-01-21T03:00:12.308Z,42.70
2023-01-21T03:03:14.767Z,36.50
2023-01-21T03:05:55.567Z,39.80
2023-01-21T03:08:25.449Z,37.60
2023-01-21T03:11:17.000Z,38.90
2023-01-21T03:14:36.221Z,36.60
2023-01-21T03:17:35.030Z,35.90
2023-01-21T03:20:39.313Z,38.40
2023-01-21T03:23:10.031Z,34.60
2023-01-21T03:25:38.240Z,33.10
2023-01-21T03:28:08.389Z,31.70
2023-01-21T03:30:36.014Z,37.80
2023-01-21T03:33:03.658Z,41.80
2023-01-21T03:35:36.964Z,36.00
2023-01-21T03:38:26.233Z,38.40
2023-01-21T03:41:15.168Z,37.10
2023-01-21T03:43:42.830Z,38.20
2023-01-21T03:46:35.125Z,34.10
2023-01-21T03:49:34.385Z,33.70
2023-01-21T03:52:02.082Z,34.10
2023-01-21T03:54:29.584Z,29.00
2023-01-21T03:56:57.148Z,32.40
2023-01-21T03:59:24.661Z,33.80
2023-01-21T04:01:52.208Z,35.90
2023-01-21T04:04:19.775Z,38.50
2023-01-21T04:06:47.365Z,35.20
2023-01-21T04:09:15.016Z,35.30
2023-01-21T04:11:42.569Z,36.30
2023-01-21T04:14:10.085Z,34.60
2023-01-21T04:16:37.765Z,33.40
2023-01-21T04:19:05.746Z,29.80
2023-01-21T04:21:33.448Z,35.50
2023-01-21T04:24:01.162Z,31.00
2023-01-21T04:26:28.675Z,33.80
2023-01-21T04:28:56.269Z,30.90
2023-01-21T04:31:23.984Z,31.70
2023-01-21T04:33:51.632Z,42.60
2023-01-21T04:36:19.489Z,29.60
2023-01-21T04:38:46.983Z,32.00
2023-01-21T04:41:14.584Z,33.10
2023-01-21T04:43:42.112Z,31.40
2023-01-21T04:46:09.625Z,31.80
2023-01-21T04:48:37.648Z,32.40
2023-01-21T04:51:06.816Z,31.20
2023-01-21T04:53:34.447Z,29.60
2023-01-21T04:56:02.350Z,31.80
2023-01-21T04:58:30.036Z,30.60
2023-01-21T05:00:57.660Z,26.20
2023-01-21T05:03:25.346Z,29.50
2023-01-21T05:05:52.893Z,28.70
2023-01-21T05:08:20.605Z,32.30
2023-01-21T05:10:48.426Z,30.40
2023-01-21T05:13:16.055Z,32.60
2023-01-21T05:15:43.643Z,29.60
2023-01-21T05:18:11.367Z,33.90
2023-01-21T05:20:38.943Z,30.40
2023-01-21T05:23:06.733Z,28.10
2023-01-21T05:25:34.402Z,30.60
2023-01-21T05:28:02.685Z,35.60
2023-01-21T05:30:30.488Z,31.30
2023-01-21T05:32:58.113Z,31.30
2023-01-21T05:35:25.757Z,30.40
2023-01-21T05:37:53.445Z,27.30
2023-01-21T05:40:21.230Z,30.10
2023-01-21T05:42:48.949Z,27.30
2023-01-21T05:45:16.679Z,30.20
2023-01-21T05:47:44.341Z,32.30
2023-01-21T05:50:12.474Z,33.30
2023-01-21T05:52:40.578Z,29.70
2023-01-21T05:55:09.781Z,31.80
2023-01-21T05:57:37.656Z,28.40
2023-01-21T06:00:06.585Z,29.60
2023-01-21T06:02:35.331Z,29.20
2023-01-21T06:05:03.221Z,31.00
2023-01-21T06:07:30.852Z,32.20
2023-01-21T06:09:58.739Z,27.30
2023-01-21T06:12:26.867Z,29.90
2023-01-21T06:14:54.548Z,31.40
2023-01-21T06:17:23.594Z,30.50
2023-01-21T06:19:51.120Z,28.90
2023-01-21T06:22:19.370Z,35.80
2023-01-21T06:24:48.056Z,30.10
2023-01-21T06:27:16.056Z,26.40
2023-01-21T06:29:46.943Z,28.70
2023-01-21T06:32:18.131Z,31.00
2023-01-21T06:34:46.719Z,27.10
2023-01-21T06:37:15.399Z,31.70
2023-01-21T06:39:43.433Z,34.20
2023-01-21T06:42:11.233Z,27.20
2023-01-21T06:44:38.805Z,31.20
2023-01-21T06:47:06.843Z,29.70
2023-01-21T06:49:34.714Z,29.40
2023-01-21T06:52:02.723Z,31.80
2023-01-21T06:54:30.949Z,34.50
2023-01-21T06:56:59.134Z,25.70
2023-01-21T06:59:27.291Z,29.20
2023-01-21T07:01:55.999Z,29.50
2023-01-21T07:04:24.009Z,25.70
2023-01-21T07:06:52.085Z,28.60
2023-01-21T07:09:20.598Z,24.60
2023-01-21T07:11:49.846Z,25.70
2023-01-21T07:14:18.385Z,23.80
2023-01-21T07:16:46.989Z,31.90
2023-01-21T07:19:15.772Z,32.40
2023-01-21T07:21:44.053Z,27.80
2023-01-21T07:24:12.723Z,27.90
2023-01-21T07:26:42.119Z,29.00
2023-01-21T07:29:10.800Z,28.50
2023-01-21T07:31:39.420Z,23.10
2023-01-21T07:34:07.602Z,26.50
2023-01-21T07:36:35.733Z,31.40
2023-01-21T07:39:04.126Z,29.50
2023-01-21T07:41:32.492Z,28.70
2023-01-21T07:44:00.876Z,28.10
2023-01-21T07:46:28.653Z,33.40
2023-01-21T07:48:57.837Z,27.50
2023-01-21T07:51:26.240Z,27.70
2023-01-21T07:53:56.814Z,26.50
2023-01-21T07:56:27.044Z,28.10
2023-01-21T07:58:55.735Z,26.80
2023-01-21T08:01:27.432Z,29.00
2023-01-21T08:03:55.053Z,28.50
2023-01-21T08:06:22.914Z,27.50
2023-01-21T08:08:50.983Z,37.00
2023-01-21T08:11:18.846Z,33.40
2023-01-21T08:13:47.435Z,29.60
2023-01-21T08:16:15.697Z,35.30
2023-01-21T11:59:19.251Z,56.20
2023-01-21T12:02:04.504Z,44.70
2023-01-21T12:04:32.000Z,60.70
2023-01-21T12:07:00.245Z,50.50
2023-01-21T12:09:28.148Z,51.90
2023-01-21T12:12:31.442Z,45.80
2023-01-21T12:14:59.029Z,42.50
2023-01-21T12:17:51.848Z,48.10
2023-01-21T12:20:47.438Z,51.30
2023-01-21T12:23:39.403Z,47.60
2023-01-21T12:26:39.068Z,43.20
2023-01-21T12:29:38.345Z,50.40
2023-01-21T12:32:11.676Z,44.20
2023-01-21T12:35:10.652Z,40.30
2023-01-21T12:37:47.971Z,41.70
2023-01-21T12:40:32.081Z,47.50
2023-01-21T12:43:16.450Z,38.90
2023-01-21T12:45:51.769Z,41.70
2023-01-21T12:48:42.417Z,47.10
2023-01-21T12:51:12.085Z,28.10
2023-01-21T12:53:54.209Z,41.70
2023-01-21T12:56:43.473Z,42.50
2023-01-21T12:59:23.491Z,38.50
2023-01-21T13:02:20.516Z,48.60
2023-01-21T13:05:01.584Z,46.20
2023-01-21T13:08:14.501Z,37.20
2023-01-21T13:10:45.290Z,36.20
2023-01-21T13:13:51.325Z,43.00
2023-01-21T13:16:18.725Z,39.80
2023-01-21T13:18:52.956Z,38.30
2023-01-21T13:21:36.223Z,36.70
2023-01-21T13:24:16.852Z,37.30
2023-01-21T13:26:51.010Z,32.50
2023-01-21T13:29:31.741Z,33.50
2023-01-21T13:32:10.758Z,35.20
2023-01-21T13:34:57.429Z,31.90
2023-01-21T13:37:37.078Z,31.80
2023-01-21T13:40:35.423Z,26.40
2023-01-21T13:43:24.436Z,37.90
2023-01-21T13:46:00.309Z,28.00
2023-01-21T13:49:03.428Z,25.50
2023-01-21T13:51:42.675Z,24.90
2023-01-21T13:54:48.067Z,29.60
2023-01-21T13:57:43.439Z,22.50
2023-01-21T14:00:19.841Z,23.20
2023-01-21T14:02:53.961Z,26.40
2023-01-21T14:05:30.238Z,26.20
2023-01-21T14:08:12.280Z,22.30
2023-01-21T14:10:44.202Z,24.90
2023-01-21T14:13:18.318Z,35.10
2023-01-21T14:15:51.699Z,31.20
2023-01-21T14:18:22.038Z,30.60
2023-01-21T14:21:15.122Z,29.20
2023-01-21T14:24:07.378Z,33.90
2023-01-21T14:26:42.857Z,32.40
2023-01-21T14:29:46.346Z,30.00
2023-01-21T14:32:41.214Z,35.10
2023-01-21T14:35:13.719Z,25.10
2023-01-21T14:37:44.285Z,31.00
2023-01-21T14:40:32.313Z,30.00
2023-01-21T14:42:59.789Z,33.20
2023-01-21T14:45:49.379Z,35.20
2023-01-21T14:48:33.915Z,38.30
2023-01-21T14:51:07.736Z,33.80
2023-01-21T14:53:49.889Z,38.40
2023-01-21T14:56:26.899Z,30.90
2023-01-21T14:59:09.523Z,30.20
2023-01-21T15:01:41.816Z,29.70
2023-01-21T15:04:29.920Z,30.50
2023-01-21T15:07:13.620Z,33.70
2023-01-21T15:09:43.317Z,34.80
2023-01-21T15:12:17.482Z,42.40
2023-01-21T15:14:46.320Z,33.20
2023-01-21T15:17:51.609Z,32.20
2023-01-21T15:20:51.759Z,31.50
2023-01-21T15:23:31.680Z,25.90
2023-01-21T15:26:11.999Z,29.60
2023-01-21T15:28:48.899Z,25.00
2023-01-21T15:31:25.355Z,28.70
2023-01-21T15:33:59.026Z,29.30
2023-01-21T15:36:32.579Z,36.40
2023-01-21T15:39:23.559Z,24.00
2023-01-21T15:42:20.919Z,22.20
2023-01-21T15:45:07.267Z,22.70
2023-01-21T15:48:04.459Z,23.10
2023-01-21T15:50:41.839Z,24.60
2023-01-21T15:53:21.769Z,22.60
2023-01-21T15:55:54.151Z,23.70
2023-01-21T15:59:00.668Z,21.20
2023-01-21T16:01:38.500Z,22.40
2023-01-21T16:04:19.546Z,26.00
2023-01-21T16:06:54.338Z,25.00
2023-01-21T19:51:47.791Z,38.00
2023-01-21T19:54:15.941Z,38.90
2023-01-21T19:56:43.334Z,33.40
2023-01-21T19:59:13.236Z,37.60
2023-01-21T20:01:49.852Z,37.40
2023-01-21T20:04:19.550Z,35.20
2023-01-21T20:06:49.833Z,37.30
2023-01-21T20:09:20.022Z,39.90
2023-01-21T20:11:47.598Z,41.10
2023-01-21T20:14:15.728Z,38.90
2023-01-21T20:16:45.575Z,38.20
2023-01-21T20:19:14.363Z,47.50
2023-01-21T20:21:59.685Z,46.10
2023-01-21T20:24:29.891Z,48.20
2023-01-21T20:26:58.415Z,41.70
2023-01-21T20:29:28.656Z,40.40
2023-01-21T20:31:56.564Z,46.90
2023-01-21T20:34:26.361Z,57.50
2023-01-21T20:36:54.685Z,32.30
2023-01-21T20:39:22.416Z,36.90
2023-01-21T20:41:49.993Z,34.90
2023-01-21T20:44:18.542Z,33.40
2023-01-21T20:46:47.814Z,35.90
2023-01-21T20:49:15.428Z,38.80
2023-01-21T20:51:43.869Z,38.40
2023-01-21T20:54:12.088Z,37.20
2023-01-21T20:56:40.292Z,36.70
2023-01-21T20:59:08.939Z,35.50
2023-01-21T21:01:39.170Z,32.80
2023-01-21T21:04:06.630Z,36.80
2023-01-21T21:06:34.913Z,36.20
2023-01-21T21:09:02.627Z,37.10
2023-01-21T21:11:30.922Z,39.50
2023-01-21T21:14:01.559Z,39.40
2023-01-21T21:16:31.656Z,42.00
2023-01-21T21:19:01.331Z,38.50
2023-01-21T21:21:29.282Z,38.00
2023-01-21T21:23:56.957Z,36.90
2023-01-21T21:26:27.100Z,37.40
2023-01-21T21:28:55.222Z,41.80
2023-01-21T21:31:23.421Z,43.10
2023-01-21T21:33:51.152Z,42.50
2023-01-21T21:36:19.930Z,48.90
2023-01-21T21:38:49.022Z,40.00
2023-01-21T21:41:36.288Z,42.30
2023-01-21T21:44:07.842Z,43.80
2023-01-21T21:46:55.495Z,42.90
2023-01-21T21:49:23.744Z,43.30
2023-01-21T21:51:51.401Z,44.40
2023-01-21T21:54:20.789Z,45.70
2023-01-21T21:56:48.195Z,40.60
2023-01-21T21:59:17.360Z,41.50
2023-01-21T22:01:47.483Z,52.30
2023-01-21T22:04:15.397Z,44.00
2023-01-21T22:06:42.947Z,45.40
2023-01-21T22:09:11.426Z,44.50
2023-01-21T22:11:39.238Z,41.50
2023-01-21T22:14:07.588Z,43.30
2023-01-21T22:16:35.045Z,48.50
2023-01-21T22:19:02.631Z,51.20
2023-01-21T22:21:32.489Z,47.20
2023-01-21T22:24:03.612Z,48.00
2023-01-21T22:26:32.009Z,54.80
2023-01-21T22:28:59.479Z,51.30
2023-01-21T22:31:31.972Z,58.80
2023-01-21T22:34:00.018Z,52.60
2023-01-21T22:36:29.201Z,50.30
2023-01-21T22:38:57.183Z,59.90
2023-01-21T22:41:25.741Z,60.60
2023-01-21T22:43:53.608Z,63.30
2023-01-21T22:46:30.296Z,62.30
2023-01-21T22:48:58.457Z,59.90
2023-01-21T22:51:26.361Z,59.10
2023-01-21T22:53:53.949Z,60.70
2023-01-21T22:56:39.855Z,63.80
2023-01-21T22:59:11.550Z,57.80
2023-01-21T23:01:41.067Z,58.80
2023-01-21T23:04:08.513Z,62.40
2023-01-21T23:06:37.655Z,58.00
2023-01-21T23:09:06.749Z,66.70
2023-01-21T23:11:36.918Z,67.50
2023-01-21T23:14:04.160Z,58.00
2023-01-21T23:16:31.387Z,68.50
2023-01-21T23:18:58.745Z,59.70
2023-01-21T23:21:26.468Z,54.90
2023-01-21T23:23:54.038Z,55.90
2023-01-21T23:26:22.373Z,58.00
2023-01-21T23:28:53.570Z,65.60
2023-01-21T23:31:23.310Z,53.70
2023-01-21T23:33:51.724Z,63.60
2023-01-21T23:36:19.553Z,62.10
2023-01-21T23:38:48.563Z,59.00
2023-01-21T23:41:16.546Z,60.10
2023-01-21T23:43:43.788Z,58.80
2023-01-21T23:46:14.148Z,70.80
2023-01-21T23:48:42.018Z,53.20
